createdAt,value
2024-01-14T00:02:16.736Z,8.60
2024-01-14T00:05:43.878Z,9.40
2024-01-14T00:09:10.857Z,9.80
2024-01-14T00:12:38.139Z,9.20
2024-01-14T00:16:05.178Z,9.60
2024-01-14T00:19:32.579Z,10.10
2024-01-14T00:22:59.410Z,9.70
2024-01-14T00:26:28.972Z,9.10
2024-01-14T00:33:26.995Z,8.70
2024-01-14T00:36:53.880Z,7.80
2024-01-14T00:40:20.674Z,8.00
2024-01-14T00:43:47.514Z,8.20
2024-01-14T00:47:14.194Z,8.60
2024-01-14T00:50:40.939Z,10.20
2024-01-14T00:54:07.853Z,11.30
2024-01-14T00:57:35.368Z,11.00
2024-01-14T01:01:02.153Z,23.20
2024-01-14T01:04:29.857Z,32.90
2024-01-14T01:07:56.639Z,26.50
2024-01-14T01:11:23.482Z,19.10
2024-01-14T01:14:50.350Z,13.50
2024-01-14T01:18:17.160Z,14.60
2024-01-14T01:21:44.297Z,12.80
2024-01-14T01:25:12.717Z,13.80
2024-01-14T01:28:39.486Z,13.20
2024-01-14T01:32:08.860Z,26.10
2024-01-14T01:35:35.939Z,18.80
2024-01-14T01:39:03.509Z,14.60
2024-01-14T01:42:30.301Z,13.40
2024-01-14T01:45:59.454Z,9.60
2024-01-14T01:49:26.356Z,9.20
2024-01-14T01:52:53.652Z,9.90
2024-01-14T01:56:21.106Z,9.00
2024-01-14T01:59:50.023Z,6.80
2024-01-14T02:03:17.528Z,7.60
2024-01-14T02:06:45.038Z,6.90
2024-01-14T02:10:12.761Z,7.00
2024-01-14T02:13:39.562Z,7.80
2024-01-14T02:17:06.596Z,7.50
2024-01-14T02:20:33.403Z,8.80
2024-01-14T02:24:07.469Z,7.00
2024-01-14T02:27:36.739Z,8.00
2024-01-14T02:31:04.499Z,6.30
2024-01-14T02:34:31.361Z,6.60
2024-01-14T02:37:58.226Z,7.60
2024-01-14T02:41:25.258Z,8.60
2024-01-14T02:44:52.265Z,11.40
2024-01-14T02:48:19.341Z,6.90
2024-01-14T02:51:48.055Z,6.80
2024-01-14T02:55:15.146Z,5.30
2024-01-14T02:58:42.909Z,5.90
2024-01-14T03:02:09.908Z,10.00
2024-01-14T03:05:36.762Z,15.80
2024-01-14T03:09:03.678Z,14.10
2024-01-14T03:12:30.493Z,14.70
2024-01-14T03:15:57.630Z,11.30
2024-01-14T03:19:24.468Z,7.70
2024-01-14T03:22:51.231Z,6.60
2024-01-14T03:26:18.157Z,5.20
2024-01-14T03:29:44.987Z,3.80
2024-01-14T03:33:12.129Z,3.50
2024-01-14T03:36:39.047Z,5.40
2024-01-14T03:40:07.033Z,3.90
2024-01-14T03:43:33.954Z,6.40
2024-01-14T03:47:00.711Z,6.70
2024-01-14T03:50:27.616Z,4.90
2024-01-14T03:53:54.685Z,2.60
2024-01-14T03:57:21.585Z,3.70
2024-01-14T04:00:48.996Z,3.80
2024-01-14T04:04:15.993Z,6.80
2024-01-14T04:07:42.837Z,5.50
2024-01-14T04:11:10.322Z,4.10
2024-01-14T04:14:37.047Z,4.00
2024-01-14T04:18:04.253Z,6.20
2024-01-14T04:21:31.143Z,5.70
2024-01-14T04:24:57.921Z,7.50
2024-01-14T04:28:24.798Z,5.30
2024-01-14T04:31:51.640Z,5.10
2024-01-14T04:35:18.413Z,3.10
2024-01-14T04:38:45.380Z,4.80
2024-01-14T04:42:12.130Z,2.90
2024-01-14T04:45:39.137Z,3.00
2024-01-14T04:49:06.082Z,3.80
2024-01-14T04:52:33.971Z,4.10
2024-01-14T04:56:00.677Z,5.30
2024-01-14T04:59:27.441Z,4.50
2024-01-14T05:02:54.240Z,5.40
2024-01-14T05:06:21.205Z,7.20
2024-01-14T05:09:48.111Z,6.60
2024-01-14T05:13:14.958Z,7.50
2024-01-14T05:16:41.880Z,8.70
2024-01-14T05:20:11.262Z,5.90
2024-01-14T05:23:38.015Z,10.20
2024-01-14T05:27:04.936Z,8.50
2024-01-14T05:30:31.950Z,6.70
2024-01-14T05:33:59.314Z,4.20
2024-01-14T05:37:26.228Z,5.10
2024-01-14T05:40:52.919Z,3.50
2024-01-14T05:44:19.763Z,3.20
2024-01-14T05:47:46.894Z,2.80
2024-01-14T05:51:13.986Z,4.10
2024-01-14T05:54:44.240Z,3.60
2024-01-14T05:58:11.614Z,3.20
2024-01-14T06:01:40.096Z,3.20
2024-01-14T06:05:08.562Z,3.20
2024-01-14T06:08:35.645Z,3.30
2024-01-14T06:12:02.515Z,4.50
2024-01-14T06:15:29.855Z,3.90
2024-01-14T06:18:57.486Z,2.90
2024-01-14T06:22:24.448Z,2.40
2024-01-14T06:25:51.288Z,2.80
2024-01-14T06:29:18.249Z,2.50
2024-01-14T06:32:45.568Z,3.30
2024-01-14T06:36:14.113Z,2.90
2024-01-14T06:39:41.359Z,3.30
2024-01-14T06:43:09.438Z,3.90
2024-01-14T06:46:36.276Z,3.20
2024-01-14T06:50:10.827Z,3.60
2024-01-14T06:53:41.553Z,4.30
2024-01-14T06:57:08.552Z,4.00
2024-01-14T07:00:35.655Z,4.20
2024-01-14T07:04:02.710Z,19.60
2024-01-14T07:07:29.827Z,7.70
2024-01-14T07:10:56.561Z,25.60
2024-01-14T07:14:24.908Z,17.10
2024-01-14T07:17:55.736Z,9.60
2024-01-14T07:21:26.367Z,9.60
2024-01-14T07:24:53.249Z,10.70
2024-01-14T07:28:20.074Z,8.40
2024-01-14T07:31:46.948Z,4.00
2024-01-14T07:35:13.840Z,4.50
2024-01-14T07:38:40.681Z,5.00
2024-01-14T07:42:07.815Z,5.20
2024-01-14T07:45:34.728Z,11.80
2024-01-14T07:49:02.315Z,8.70
2024-01-14T07:52:29.057Z,14.30
2024-01-14T07:55:56.133Z,16.50
2024-01-14T07:59:24.611Z,12.20
2024-01-14T08:02:51.353Z,7.40
2024-01-14T08:06:23.618Z,12.70
2024-01-14T08:09:50.532Z,9.30
2024-01-14T08:13:17.558Z,8.00
2024-01-14T08:16:44.461Z,4.80
2024-01-14T08:20:13.409Z,4.30
2024-01-14T08:23:42.883Z,4.30
2024-01-14T08:27:10.462Z,5.70
2024-01-14T08:30:37.546Z,4.40
2024-01-14T08:34:05.902Z,6.50
2024-01-14T08:37:32.856Z,30.60
2024-01-14T08:40:59.541Z,34.20
2024-01-14T08:44:28.978Z,14.10
2024-01-14T08:47:57.309Z,9.10
2024-01-14T08:51:25.014Z,11.80
2024-01-14T08:54:51.780Z,21.50
2024-01-14T08:58:18.725Z,21.50
2024-01-14T09:01:46.164Z,14.30
2024-01-14T09:05:13.044Z,11.90
2024-01-14T09:08:39.986Z,7.50
2024-01-14T09:12:09.719Z,8.50
2024-01-14T09:15:37.623Z,7.50
2024-01-14T09:19:05.287Z,7.80
2024-01-14T09:22:34.948Z,7.00
2024-01-14T09:29:28.120Z,7.90
2024-01-14T09:32:55.507Z,6.10
2024-01-14T09:36:23.949Z,4.40
2024-01-14T09:39:50.861Z,6.00
2024-01-14T09:43:17.858Z,24.40
2024-01-14T09:46:53.993Z,35.00
2024-01-14T09:50:21.855Z,36.90
2024-01-14T09:53:49.660Z,36.40
2024-01-14T09:57:20.073Z,22.00
2024-01-14T10:00:49.711Z,28.70
2024-01-14T10:04:20.192Z,52.00
2024-01-14T10:07:48.889Z,68.80
2024-01-14T10:11:16.201Z,44.40
2024-01-14T10:14:42.974Z,53.00
2024-01-14T10:18:10.390Z,32.50
2024-01-14T10:21:38.705Z,34.40
2024-01-14T10:25:06.843Z,24.90
2024-01-14T10:28:38.115Z,23.50
2024-01-14T10:32:05.614Z,27.20
2024-01-14T10:35:33.514Z,30.70
2024-01-14T10:39:04.548Z,30.70
2024-01-14T10:42:48.720Z,15.90
2024-01-14T10:46:20.700Z,23.20
2024-01-14T10:49:49.641Z,31.30
2024-01-14T10:53:28.003Z,16.00
2024-01-14T10:57:05.740Z,14.10
2024-01-14T11:00:37.015Z,8.90
2024-01-14T11:04:05.690Z,8.10
2024-01-14T11:07:34.607Z,6.70
2024-01-14T11:11:02.922Z,5.50
2024-01-14T11:14:37.358Z,6.70
2024-01-14T11:18:30.369Z,4.80
2024-01-14T11:22:30.810Z,4.70
2024-01-14T11:26:03.386Z,4.40
2024-01-14T11:29:38.845Z,7.10
2024-01-14T11:33:40.642Z,5.10
2024-01-14T11:37:08.619Z,4.60
2024-01-14T11:40:36.262Z,4.60
2024-01-14T11:44:07.117Z,4.20
2024-01-14T11:47:39.979Z,4.10
2024-01-14T11:51:09.199Z,4.90
2024-01-14T11:54:38.944Z,5.10
2024-01-14T11:58:18.000Z,4.50
2024-01-14T12:01:45.401Z,4.70
2024-01-14T12:05:23.746Z,3.30
2024-01-14T12:08:50.779Z,3.90
2024-01-14T12:12:20.183Z,3.60
2024-01-14T12:15:55.833Z,3.50
2024-01-14T12:19:28.890Z,3.20
2024-01-14T12:23:00.551Z,5.00
2024-01-14T12:26:28.204Z,4.70
2024-01-14T12:29:56.079Z,4.50
2024-01-14T12:33:26.282Z,4.00
2024-01-14T12:36:56.482Z,4.30
2024-01-14T12:40:25.687Z,4.20
2024-01-14T12:43:57.087Z,3.80
2024-01-14T12:47:24.228Z,3.10
2024-01-14T12:50:56.996Z,4.30
2024-01-14T12:54:26.909Z,3.60
2024-01-14T12:57:55.152Z,3.20
2024-01-14T13:01:24.168Z,3.10
2024-01-14T13:04:54.928Z,3.50
2024-01-14T13:08:22.290Z,4.30
2024-01-14T13:11:49.830Z,3.20
2024-01-14T13:15:16.677Z,3.80
2024-01-14T13:18:44.310Z,4.40
2024-01-14T13:22:11.334Z,4.20
2024-01-14T13:25:38.780Z,4.30
2024-01-14T13:29:05.814Z,4.20
2024-01-14T13:32:38.281Z,4.30
2024-01-14T13:36:06.580Z,5.80
2024-01-14T13:39:33.966Z,36.60
2024-01-14T13:43:01.103Z,46.50
2024-01-14T13:46:27.937Z,33.70
2024-01-14T13:49:55.026Z,37.20
2024-01-14T13:53:22.635Z,9.50
2024-01-14T13:56:52.092Z,10.40
2024-01-14T14:00:19.326Z,20.60
2024-01-14T14:03:46.939Z,10.60
2024-01-14T14:07:14.925Z,8.00
2024-01-14T14:10:49.882Z,9.30
2024-01-14T14:14:23.887Z,36.30
2024-01-14T14:17:52.530Z,26.60
2024-01-14T14:21:21.283Z,10.50
2024-01-14T14:24:49.232Z,9.60
2024-01-14T14:28:16.584Z,7.90
2024-01-14T14:31:49.320Z,5.70
2024-01-14T14:35:17.622Z,5.30
2024-01-14T14:38:44.997Z,6.20
2024-01-14T14:42:16.281Z,7.50
2024-01-14T14:45:44.071Z,9.10
2024-01-14T14:49:11.845Z,10.00
2024-01-14T14:52:38.954Z,10.60
2024-01-14T14:56:06.111Z,8.80
2024-01-14T14:59:33.952Z,8.60
2024-01-14T15:03:00.949Z,10.30
2024-01-14T15:06:28.272Z,9.60
2024-01-14T15:09:57.508Z,10.20
2024-01-14T15:13:24.580Z,14.30
2024-01-14T15:16:52.388Z,19.80
2024-01-14T15:20:19.750Z,16.30
2024-01-14T15:23:46.761Z,16.90
2024-01-14T15:27:13.771Z,10.60
2024-01-14T15:30:43.206Z,10.80
2024-01-14T15:34:15.555Z,10.70
2024-01-14T15:37:43.908Z,13.10
2024-01-14T15:41:11.002Z,12.00
2024-01-14T15:44:38.073Z,12.70
2024-01-14T15:48:06.906Z,11.70
2024-01-14T15:51:34.368Z,9.30
2024-01-14T15:55:01.508Z,10.00
2024-01-14T15:58:28.705Z,10.20
2024-01-14T16:01:55.719Z,12.60
2024-01-14T16:05:22.782Z,11.20
2024-01-14T16:08:50.011Z,10.20
2024-01-14T16:12:16.895Z,9.80
2024-01-14T16:15:44.152Z,10.90
2024-01-14T16:19:11.044Z,9.50
2024-01-14T16:22:37.960Z,9.20
2024-01-14T16:26:04.950Z,7.70
2024-01-14T16:29:32.808Z,8.80
2024-01-14T16:32:59.747Z,9.10
2024-01-14T16:36:26.703Z,8.70
2024-01-14T16:39:55.643Z,9.20
2024-01-14T16:43:22.530Z,9.10
2024-01-14T16:46:49.843Z,10.80
2024-01-14T16:50:16.787Z,31.80
2024-01-14T16:53:45.347Z,22.90
2024-01-14T17:00:38.773Z,6.60
2024-01-14T17:04:06.544Z,7.20
2024-01-14T17:07:33.598Z,6.80
2024-01-14T17:11:06.487Z,5.00
2024-01-14T17:14:33.998Z,4.70
2024-01-14T17:18:04.029Z,5.40
2024-01-14T17:21:32.406Z,4.50
2024-01-14T17:24:59.629Z,5.00
2024-01-14T17:28:26.945Z,6.10
2024-01-14T17:31:55.605Z,5.40
2024-01-14T17:35:23.134Z,4.80
2024-01-14T17:38:50.493Z,7.20
2024-01-14T17:42:20.040Z,23.70
2024-01-14T17:45:58.683Z,24.60
2024-01-14T17:49:33.970Z,17.90
2024-01-14T17:53:05.549Z,33.90
2024-01-14T17:56:38.842Z,29.50
2024-01-14T18:00:12.366Z,20.90
2024-01-14T18:03:41.061Z,30.60
2024-01-14T18:07:12.032Z,12.90
2024-01-14T18:14:04.733Z,7.30
2024-01-14T18:17:32.102Z,6.80
2024-01-14T18:21:02.134Z,6.10
2024-01-14T18:24:29.571Z,6.70
2024-01-14T18:27:56.868Z,7.00
2024-01-14T18:31:26.604Z,7.00
2024-01-14T18:34:53.739Z,5.90
2024-01-14T18:38:22.012Z,7.40
2024-01-14T18:41:51.346Z,6.80
2024-01-14T18:45:18.746Z,7.20
2024-01-14T18:48:46.254Z,7.20
2024-01-14T18:52:13.322Z,8.00
2024-01-14T18:55:41.373Z,7.90
2024-01-14T18:59:08.771Z,11.60
2024-01-14T19:02:36.113Z,17.60
2024-01-14T19:06:03.238Z,14.80
2024-01-14T19:09:30.097Z,16.80
2024-01-14T19:13:00.885Z,16.90
2024-01-14T19:16:28.210Z,11.70
2024-01-14T19:19:55.757Z,12.50
2024-01-14T19:23:24.169Z,13.70
2024-01-14T19:26:51.064Z,10.80
2024-01-14T19:30:19.163Z,10.50
2024-01-14T19:33:47.173Z,10.00
2024-01-14T19:37:14.563Z,10.60
2024-01-14T19:40:44.269Z,10.20
2024-01-14T19:44:11.626Z,10.00
2024-01-14T19:47:39.473Z,9.30
2024-01-14T19:51:07.373Z,10.60
2024-01-14T19:54:37.140Z,10.20
2024-01-14T19:58:07.041Z,9.20
2024-01-14T20:01:34.331Z,9.30
2024-01-14T20:05:16.952Z,10.10
2024-01-14T20:08:44.739Z,11.00
2024-01-14T20:12:12.251Z,10.00
2024-01-14T20:15:40.930Z,8.90
2024-01-14T20:19:08.647Z,9.40
2024-01-14T20:22:35.631Z,9.60
2024-01-14T20:26:03.450Z,9.20
2024-01-14T20:29:30.287Z,9.80
2024-01-14T20:32:57.476Z,11.00
2024-01-14T20:36:28.728Z,10.60
2024-01-14T20:39:56.204Z,10.10
2024-01-14T20:43:23.199Z,11.00
2024-01-14T20:46:50.977Z,10.40
2024-01-14T20:50:18.379Z,10.80
2024-01-14T20:53:46.336Z,12.10
2024-01-14T20:57:13.610Z,12.10
2024-01-14T21:00:40.776Z,12.60
2024-01-14T21:04:07.885Z,11.50
2024-01-14T21:07:34.942Z,12.60
2024-01-14T21:11:02.011Z,12.30
2024-01-14T21:14:28.817Z,13.70
2024-01-14T21:17:55.688Z,11.70
2024-01-14T21:21:25.659Z,11.10
2024-01-14T21:24:53.973Z,12.20
2024-01-14T21:28:21.166Z,12.60
2024-01-14T21:31:48.348Z,12.20
2024-01-14T21:35:15.440Z,11.10
2024-01-14T21:38:42.478Z,13.60
2024-01-14T21:42:11.372Z,14.30
2024-01-14T21:45:38.365Z,12.20
2024-01-14T21:49:05.846Z,13.10
2024-01-14T21:52:35.609Z,12.40
2024-01-14T21:56:03.970Z,12.50
2024-01-14T21:59:31.109Z,13.80
2024-01-14T22:02:58.186Z,13.00
2024-01-14T22:06:26.632Z,12.80
2024-01-14T22:09:55.366Z,13.40
2024-01-14T22:13:24.747Z,12.10
2024-01-14T22:20:19.634Z,12.80
2024-01-14T22:23:46.613Z,11.10
2024-01-14T22:27:15.685Z,12.60
2024-01-14T22:30:42.866Z,13.10
2024-01-14T22:34:09.902Z,13.00
2024-01-14T22:37:36.952Z,13.60
2024-01-14T22:41:04.121Z,15.60
2024-01-14T22:44:31.322Z,14.60
2024-01-14T22:47:58.478Z,14.10
2024-01-14T22:51:25.931Z,14.70
2024-01-14T22:54:53.018Z,14.70
2024-01-14T22:58:22.106Z,14.90
2024-01-14T23:01:49.325Z,14.30
2024-01-14T23:05:17.100Z,14.70
2024-01-14T23:08:44.162Z,12.60
2024-01-14T23:12:11.736Z,15.10
2024-01-14T23:15:38.916Z,13.10
2024-01-14T23:22:33.984Z,13.80
2024-01-14T23:26:00.768Z,13.90
2024-01-14T23:29:27.641Z,13.30
2024-01-14T23:32:54.646Z,12.00
2024-01-14T23:36:22.046Z,13.00
2024-01-14T23:39:49.335Z,13.30
2024-01-14T23:43:16.337Z,13.40
2024-01-14T23:46:43.524Z,12.70
2024-01-14T23:50:11.109Z,14.10
2024-01-14T23:53:38.474Z,14.40
2024-01-14T23:57:06.141Z,14.10
